sensor_id;sensor_type;location;lat;lon;timestamp;temperature;humidity
5743;DHT22;2896;53.500;10.020;2023-06-10T00:01:52;14.60;99.90
5743;DHT22;2896;53.500;10.020;2023-06-10T00:04:20;14.50;99.90
5743;DHT22;2896;53.500;10.020;2023-06-10T00:06:47;14.50;99.90
5743;DHT22;2896;53.500;10.020;2023-06-10T00:09:16;14.40;95.00
5743;DHT22;2896;53.500;10.020;2023-06-10T00:11:44;14.40;74.60
5743;DHT22;2896;53.500;10.020;2023-06-10T00:14:10;14.40;24.30
5743;DHT22;2896;53.500;10.020;2023-06-10T00:16:37;14.30;13.60
5743;DHT22;2896;53.500;10.020;2023-06-10T00:19:05;14.30;1.00
5743;DHT22;2896;53.500;10.020;2023-06-10T00:21:34;14.20;1.00
5743;DHT22;2896;53.500;10.020;2023-06-10T00:24:03;14.20;1.00
5743;DHT22;2896;53.500;10.020;2023-06-10T00:26:30;14.20;1.00
5743;DHT22;2896;53.500;10.020;2023-06-10T00:28:57;14.10;1.00
5743;DHT22;2896;53.500;10.020;2023-06-10T00:31:23;11.50;1.00
5743;DHT22;2896;53.500;10.020;2023-06-10T00:33:51;14.00;1.00
5743;DHT22;2896;53.500;10.020;2023-06-10T00:36:20;14.00;1.00
5743;DHT22;2896;53.500;10.020;2023-06-10T00:38:47;14.00;1.00
5743;DHT22;2896;53.500;10.020;2023-06-10T00:41:13;14.00;2.20
5743;DHT22;2896;53.500;10.020;2023-06-10T00:43:40;14.10;32.10
5743;DHT22;2896;53.500;10.020;2023-06-10T00:46:06;14.00;32.30
5743;DHT22;2896;53.500;10.020;2023-06-10T00:48:33;13.90;35.40
5743;DHT22;2896;53.500;10.020;2023-06-10T00:51:00;13.80;8.20
5743;DHT22;2896;53.500;10.020;2023-06-10T00:53:29;13.90;4.70
5743;DHT22;2896;53.500;10.020;2023-06-10T00:55:56;13.80;10.30
5743;DHT22;2896;53.500;10.020;2023-06-10T00:58:23;13.80;2.20
5743;DHT22;2896;53.500;10.020;2023-06-10T01:00:51;14.00;1.00
5743;DHT22;2896;53.500;10.020;2023-06-10T01:03:18;13.70;1.00
5743;DHT22;2896;53.500;10.020;2023-06-10T01:05:50;13.60;1.00
5743;DHT22;2896;53.500;10.020;2023-06-10T01:08:33;13.60;1.00
5743;DHT22;2896;53.500;10.020;2023-06-10T01:11:05;13.50;1.00
5743;DHT22;2896;53.500;10.020;2023-06-10T01:13:36;13.50;1.00
5743;DHT22;2896;53.500;10.020;2023-06-10T01:16:04;13.50;1.00
5743;DHT22;2896;53.500;10.020;2023-06-10T01:18:31;15.60;1.00
5743;DHT22;2896;53.500;10.020;2023-06-10T01:20:58;13.40;1.00
5743;DHT22;2896;53.500;10.020;2023-06-10T01:23:26;13.30;1.00
5743;DHT22;2896;53.500;10.020;2023-06-10T01:25:59;13.30;1.00
5743;DHT22;2896;53.500;10.020;2023-06-10T01:28:31;13.30;1.00
5743;DHT22;2896;53.500;10.020;2023-06-10T01:31:05;13.20;1.00
5743;DHT22;2896;53.500;10.020;2023-06-10T01:33:37;13.30;1.00
5743;DHT22;2896;53.500;10.020;2023-06-10T01:36:05;13.10;1.00
5743;DHT22;2896;53.500;10.020;2023-06-10T01:38:39;13.20;1.00
5743;DHT22;2896;53.500;10.020;2023-06-10T01:41:06;13.10;1.00
5743;DHT22;2896;53.500;10.020;2023-06-10T01:43:33;13.00;1.00
5743;DHT22;2896;53.500;10.020;2023-06-10T01:46:01;13.00;1.00
5743;DHT22;2896;53.500;10.020;2023-06-10T01:48:27;13.00;1.00
5743;DHT22;2896;53.500;10.020;2023-06-10T01:50:54;13.00;1.00
5743;DHT22;2896;53.500;10.020;2023-06-10T01:53:21;12.90;1.00
5743;DHT22;2896;53.500;10.020;2023-06-10T01:55:49;12.90;1.00
5743;DHT22;2896;53.500;10.020;2023-06-10T01:58:16;12.90;1.00
5743;DHT22;2896;53.500;10.020;2023-06-10T02:00:43;12.90;1.00
5743;DHT22;2896;53.500;10.020;2023-06-10T02:03:09;12.90;1.00
5743;DHT22;2896;53.500;10.020;2023-06-10T02:05:36;12.90;1.00
5743;DHT22;2896;53.500;10.020;2023-06-10T02:08:03;12.90;1.00
5743;DHT22;2896;53.500;10.020;2023-06-10T02:10:30;12.90;1.00
5743;DHT22;2896;53.500;10.020;2023-06-10T02:12:58;12.90;1.00
5743;DHT22;2896;53.500;10.020;2023-06-10T02:15:25;12.90;1.00
5743;DHT22;2896;53.500;10.020;2023-06-10T02:17:52;12.90;1.00
5743;DHT22;2896;53.500;10.020;2023-06-10T02:20:20;12.90;1.00
5743;DHT22;2896;53.500;10.020;2023-06-10T02:22:47;12.90;1.00
5743;DHT22;2896;53.500;10.020;2023-06-10T02:25:13;12.80;1.00
5743;DHT22;2896;53.500;10.020;2023-06-10T02:27:40;12.70;1.00
5743;DHT22;2896;53.500;10.020;2023-06-10T02:30:09;12.80;1.00
5743;DHT22;2896;53.500;10.020;2023-06-10T02:32:36;12.80;1.00
5743;DHT22;2896;53.500;10.020;2023-06-10T02:35:03;12.80;1.00
5743;DHT22;2896;53.500;10.020;2023-06-10T02:37:29;12.80;1.00
5743;DHT22;2896;53.500;10.020;2023-06-10T02:39:56;12.80;1.00
5743;DHT22;2896;53.500;10.020;2023-06-10T02:42:23;12.80;1.00
5743;DHT22;2896;53.500;10.020;2023-06-10T02:44:49;12.80;1.00
5743;DHT22;2896;53.500;10.020;2023-06-10T02:47:17;12.80;1.00
5743;DHT22;2896;53.500;10.020;2023-06-10T02:49:44;12.70;1.00
5743;DHT22;2896;53.500;10.020;2023-06-10T02:52:11;12.70;1.00
5743;DHT22;2896;53.500;10.020;2023-06-10T02:54:37;12.70;1.00
5743;DHT22;2896;53.500;10.020;2023-06-10T02:57:04;12.60;1.00
5743;DHT22;2896;53.500;10.020;2023-06-10T02:59:33;12.60;1.00
5743;DHT22;2896;53.500;10.020;2023-06-10T03:02:00;12.60;1.00
5743;DHT22;2896;53.500;10.020;2023-06-10T03:04:28;12.60;1.00
5743;DHT22;2896;53.500;10.020;2023-06-10T03:06:56;12.60;1.00
5743;DHT22;2896;53.500;10.020;2023-06-10T03:09:23;12.70;1.00
5743;DHT22;2896;53.500;10.020;2023-06-10T03:11:49;12.60;1.00
5743;DHT22;2896;53.500;10.020;2023-06-10T03:14:16;12.60;1.00
5743;DHT22;2896;53.500;10.020;2023-06-10T03:16:42;12.60;1.00
5743;DHT22;2896;53.500;10.020;2023-06-10T03:19:10;12.60;1.00
5743;DHT22;2896;53.500;10.020;2023-06-10T03:21:38;12.60;1.00
5743;DHT22;2896;53.500;10.020;2023-06-10T03:24:07;12.60;1.00
5743;DHT22;2896;53.500;10.020;2023-06-10T03:26:33;12.60;1.00
5743;DHT22;2896;53.500;10.020;2023-06-10T03:29:00;12.60;1.00
5743;DHT22;2896;53.500;10.020;2023-06-10T03:31:26;12.60;1.00
5743;DHT22;2896;53.500;10.020;2023-06-10T03:33:53;12.70;1.00
5743;DHT22;2896;53.500;10.020;2023-06-10T03:36:20;12.70;1.00
5743;DHT22;2896;53.500;10.020;2023-06-10T03:38:48;12.80;1.00
5743;DHT22;2896;53.500;10.020;2023-06-10T03:41:17;12.70;1.00
5743;DHT22;2896;53.500;10.020;2023-06-10T03:43:43;12.80;1.00
5743;DHT22;2896;53.500;10.020;2023-06-10T03:46:10;12.80;1.00
5743;DHT22;2896;53.500;10.020;2023-06-10T03:48:37;12.80;1.00
5743;DHT22;2896;53.500;10.020;2023-06-10T03:51:04;12.80;1.00
5743;DHT22;2896;53.500;10.020;2023-06-10T03:53:30;12.80;1.00
5743;DHT22;2896;53.500;10.020;2023-06-10T03:55:59;12.90;1.00
5743;DHT22;2896;53.500;10.020;2023-06-10T03:58:26;12.90;1.00
5743;DHT22;2896;53.500;10.020;2023-06-10T04:00:52;13.00;1.00
5743;DHT22;2896;53.500;10.020;2023-06-10T04:03:20;13.00;1.00
5743;DHT22;2896;53.500;10.020;2023-06-10T04:05:48;13.00;1.00
5743;DHT22;2896;53.500;10.020;2023-06-10T04:08:15;13.10;1.00
5743;DHT22;2896;53.500;10.020;2023-06-10T04:10:42;13.10;1.00
5743;DHT22;2896;53.500;10.020;2023-06-10T04:13:10;13.20;1.00
5743;DHT22;2896;53.500;10.020;2023-06-10T04:15:36;13.20;1.00
5743;DHT22;2896;53.500;10.020;2023-06-10T04:18:04;13.20;1.00
5743;DHT22;2896;53.500;10.020;2023-06-10T04:20:31;13.30;1.00
5743;DHT22;2896;53.500;10.020;2023-06-10T04:22:58;13.30;1.00
5743;DHT22;2896;53.500;10.020;2023-06-10T04:25:25;13.30;1.00
5743;DHT22;2896;53.500;10.020;2023-06-10T04:27:52;13.40;1.00
5743;DHT22;2896;53.500;10.020;2023-06-10T04:30:20;13.40;1.00
5743;DHT22;2896;53.500;10.020;2023-06-10T04:32:47;13.50;1.00
5743;DHT22;2896;53.500;10.020;2023-06-10T04:35:15;13.50;1.00
5743;DHT22;2896;53.500;10.020;2023-06-10T04:37:42;13.60;1.00
5743;DHT22;2896;53.500;10.020;2023-06-10T04:40:09;13.60;1.00
5743;DHT22;2896;53.500;10.020;2023-06-10T04:42:36;13.70;1.00
5743;DHT22;2896;53.500;10.020;2023-06-10T04:45:03;13.80;1.00
5743;DHT22;2896;53.500;10.020;2023-06-10T04:47:31;13.80;1.00
5743;DHT22;2896;53.500;10.020;2023-06-10T04:49:59;13.80;1.00
5743;DHT22;2896;53.500;10.020;2023-06-10T04:52:25;13.80;1.00
5743;DHT22;2896;53.500;10.020;2023-06-10T04:54:52;13.90;1.00
5743;DHT22;2896;53.500;10.020;2023-06-10T04:57:20;14.00;1.00
5743;DHT22;2896;53.500;10.020;2023-06-10T04:59:47;14.00;1.00
5743;DHT22;2896;53.500;10.020;2023-06-10T05:02:13;14.10;1.00
5743;DHT22;2896;53.500;10.020;2023-06-10T05:04:41;14.10;1.00
5743;DHT22;2896;53.500;10.020;2023-06-10T05:07:08;14.20;1.00
5743;DHT22;2896;53.500;10.020;2023-06-10T05:09:35;14.20;1.00
5743;DHT22;2896;53.500;10.020;2023-06-10T05:12:02;14.40;1.00
5743;DHT22;2896;53.500;10.020;2023-06-10T05:14:29;14.40;1.00
5743;DHT22;2896;53.500;10.020;2023-06-10T05:16:56;14.50;1.00
5743;DHT22;2896;53.500;10.020;2023-06-10T05:19:23;14.50;1.00
5743;DHT22;2896;53.500;10.020;2023-06-10T05:21:52;14.60;1.00
5743;DHT22;2896;53.500;10.020;2023-06-10T05:24:18;14.70;1.00
5743;DHT22;2896;53.500;10.020;2023-06-10T05:26:45;14.70;1.00
5743;DHT22;2896;53.500;10.020;2023-06-10T05:29:12;14.70;1.00
5743;DHT22;2896;53.500;10.020;2023-06-10T05:31:40;14.80;1.00
5743;DHT22;2896;53.500;10.020;2023-06-10T05:34:07;14.80;1.00
5743;DHT22;2896;53.500;10.020;2023-06-10T05:36:34;14.90;1.00
5743;DHT22;2896;53.500;10.020;2023-06-10T05:39:02;15.00;1.00
5743;DHT22;2896;53.500;10.020;2023-06-10T05:41:29;15.00;1.00
5743;DHT22;2896;53.500;10.020;2023-06-10T05:43:55;15.10;1.00
5743;DHT22;2896;53.500;10.020;2023-06-10T05:46:22;15.20;1.00
5743;DHT22;2896;53.500;10.020;2023-06-10T05:48:49;15.20;1.00
5743;DHT22;2896;53.500;10.020;2023-06-10T05:51:16;15.40;1.00
5743;DHT22;2896;53.500;10.020;2023-06-10T05:53:42;15.50;1.00
5743;DHT22;2896;53.500;10.020;2023-06-10T05:56:13;15.50;1.00
5743;DHT22;2896;53.500;10.020;2023-06-10T05:58:39;15.50;1.00
5743;DHT22;2896;53.500;10.020;2023-06-10T06:01:06;15.60;1.00
5743;DHT22;2896;53.500;10.020;2023-06-10T06:03:33;15.80;1.00
5743;DHT22;2896;53.500;10.020;2023-06-10T06:05:59;16.00;99.90
5743;DHT22;2896;53.500;10.020;2023-06-10T06:08:26;16.10;99.90
5743;DHT22;2896;53.500;10.020;2023-06-10T06:10:53;16.00;99.90
5743;DHT22;2896;53.500;10.020;2023-06-10T06:13:21;16.00;99.90
5743;DHT22;2896;53.500;10.020;2023-06-10T06:15:48;16.30;99.90
5743;DHT22;2896;53.500;10.020;2023-06-10T06:18:14;16.20;99.90
5743;DHT22;2896;53.500;10.020;2023-06-10T06:20:41;16.20;99.90
5743;DHT22;2896;53.500;10.020;2023-06-10T06:23:07;16.40;99.90
5743;DHT22;2896;53.500;10.020;2023-06-10T06:25:35;16.50;99.90
5743;DHT22;2896;53.500;10.020;2023-06-10T06:28:04;16.60;99.90
5743;DHT22;2896;53.500;10.020;2023-06-10T06:30:32;16.50;99.90
5743;DHT22;2896;53.500;10.020;2023-06-10T06:32:58;16.40;99.90
5743;DHT22;2896;53.500;10.020;2023-06-10T06:35:30;16.50;99.90
5743;DHT22;2896;53.500;10.020;2023-06-10T06:37:56;16.70;99.90
5743;DHT22;2896;53.500;10.020;2023-06-10T06:40:24;16.60;99.90
5743;DHT22;2896;53.500;10.020;2023-06-10T06:42:50;16.80;99.90
5743;DHT22;2896;53.500;10.020;2023-06-10T06:45:17;17.10;99.90
5743;DHT22;2896;53.500;10.020;2023-06-10T06:47:45;16.80;99.90
5743;DHT22;2896;53.500;10.020;2023-06-10T06:50:12;16.90;99.90
5743;DHT22;2896;53.500;10.020;2023-06-10T06:52:38;16.90;99.90
5743;DHT22;2896;53.500;10.020;2023-06-10T06:55:05;17.00;99.90
5743;DHT22;2896;53.500;10.020;2023-06-10T06:57:32;17.00;99.90
5743;DHT22;2896;53.500;10.020;2023-06-10T06:59:59;17.20;99.90
5743;DHT22;2896;53.500;10.020;2023-06-10T07:02:25;17.50;99.90
5743;DHT22;2896;53.500;10.020;2023-06-10T07:04:53;17.70;99.90
5743;DHT22;2896;53.500;10.020;2023-06-10T07:07:21;17.60;99.90
5743;DHT22;2896;53.500;10.020;2023-06-10T07:09:48;17.50;99.90
5743;DHT22;2896;53.500;10.020;2023-06-10T07:12:14;17.50;99.90
5743;DHT22;2896;53.500;10.020;2023-06-10T07:14:41;17.90;99.90
5743;DHT22;2896;53.500;10.020;2023-06-10T07:17:08;18.10;99.90
5743;DHT22;2896;53.500;10.020;2023-06-10T07:19:34;18.30;99.90
5743;DHT22;2896;53.500;10.020;2023-06-10T07:22:03;18.40;99.90
5743;DHT22;2896;53.500;10.020;2023-06-10T07:24:29;18.40;99.90
5743;DHT22;2896;53.500;10.020;2023-06-10T07:26:56;18.50;99.90
5743;DHT22;2896;53.500;10.020;2023-06-10T07:29:23;18.70;99.90
5743;DHT22;2896;53.500;10.020;2023-06-10T07:31:49;18.60;99.90
5743;DHT22;2896;53.500;10.020;2023-06-10T07:34:16;18.90;99.90
5743;DHT22;2896;53.500;10.020;2023-06-10T07:36:43;18.90;99.90
5743;DHT22;2896;53.500;10.020;2023-06-10T07:39:11;19.10;99.90
5743;DHT22;2896;53.500;10.020;2023-06-10T07:41:37;19.30;99.90
5743;DHT22;2896;53.500;10.020;2023-06-10T07:44:04;19.10;99.90
5743;DHT22;2896;53.500;10.020;2023-06-10T07:46:30;19.30;99.90
5743;DHT22;2896;53.500;10.020;2023-06-10T07:48:57;19.70;99.90
5743;DHT22;2896;53.500;10.020;2023-06-10T07:51:24;19.80;99.90
5743;DHT22;2896;53.500;10.020;2023-06-10T07:53:51;19.50;99.90
5743;DHT22;2896;53.500;10.020;2023-06-10T07:56:19;19.60;99.90
5743;DHT22;2896;53.500;10.020;2023-06-10T07:58:46;20.00;99.90
5743;DHT22;2896;53.500;10.020;2023-06-10T08:01:13;19.60;99.90
5743;DHT22;2896;53.500;10.020;2023-06-10T08:03:40;19.60;99.90
5743;DHT22;2896;53.500;10.020;2023-06-10T08:06:06;20.10;99.90
5743;DHT22;2896;53.500;10.020;2023-06-10T08:08:33;20.30;99.90
5743;DHT22;2896;53.500;10.020;2023-06-10T08:11:00;20.70;99.90
5743;DHT22;2896;53.500;10.020;2023-06-10T08:13:28;20.50;99.90
5743;DHT22;2896;53.500;10.020;2023-06-10T08:15:55;20.60;99.90
5743;DHT22;2896;53.500;10.020;2023-06-10T08:18:21;20.90;99.90
5743;DHT22;2896;53.500;10.020;2023-06-10T08:20:48;21.20;99.90
5743;DHT22;2896;53.500;10.020;2023-06-10T08:23:15;20.90;99.90
5743;DHT22;2896;53.500;10.020;2023-06-10T08:25:41;20.90;99.90
5743;DHT22;2896;53.500;10.020;2023-06-10T08:28:08;21.40;99.90
5743;DHT22;2896;53.500;10.020;2023-06-10T08:30:36;21.10;99.90
5743;DHT22;2896;53.500;10.020;2023-06-10T08:33:02;21.70;99.90
5743;DHT22;2896;53.500;10.020;2023-06-10T08:35:29;21.70;99.90
5743;DHT22;2896;53.500;10.020;2023-06-10T08:37:56;21.60;99.90
5743;DHT22;2896;53.500;10.020;2023-06-10T08:40:22;22.00;99.90
5743;DHT22;2896;53.500;10.020;2023-06-10T08:42:56;21.80;99.90
5743;DHT22;2896;53.500;10.020;2023-06-10T08:45:28;22.10;99.90
5743;DHT22;2896;53.500;10.020;2023-06-10T08:47:58;22.80;99.90
5743;DHT22;2896;53.500;10.020;2023-06-10T08:50:26;23.10;99.90
5743;DHT22;2896;53.500;10.020;2023-06-10T08:52:57;22.90;99.90
5743;DHT22;2896;53.500;10.020;2023-06-10T08:55:29;23.20;99.90
5743;DHT22;2896;53.500;10.020;2023-06-10T08:57:57;23.50;99.90
5743;DHT22;2896;53.500;10.020;2023-06-10T09:00:25;24.00;99.90
5743;DHT22;2896;53.500;10.020;2023-06-10T09:02:52;23.60;99.90
5743;DHT22;2896;53.500;10.020;2023-06-10T09:05:23;24.00;99.90
5743;DHT22;2896;53.500;10.020;2023-06-10T09:07:51;24.20;99.90
5743;DHT22;2896;53.500;10.020;2023-06-10T09:10:19;24.10;99.90
5743;DHT22;2896;53.500;10.020;2023-06-10T09:12:46;23.90;99.90
5743;DHT22;2896;53.500;10.020;2023-06-10T09:15:12;24.50;99.90
5743;DHT22;2896;53.500;10.020;2023-06-10T09:17:40;24.30;99.90
5743;DHT22;2896;53.500;10.020;2023-06-10T09:20:07;24.50;99.90
5743;DHT22;2896;53.500;10.020;2023-06-10T09:22:36;24.50;99.90
5743;DHT22;2896;53.500;10.020;2023-06-10T09:25:03;24.70;99.90
5743;DHT22;2896;53.500;10.020;2023-06-10T09:27:31;24.10;99.90
5743;DHT22;2896;53.500;10.020;2023-06-10T09:29:58;24.30;99.90
5743;DHT22;2896;53.500;10.020;2023-06-10T09:32:26;24.40;99.90
5743;DHT22;2896;53.500;10.020;2023-06-10T09:34:53;24.70;99.90
5743;DHT22;2896;53.500;10.020;2023-06-10T09:37:20;24.50;99.90
5743;DHT22;2896;53.500;10.020;2023-06-10T09:40:01;24.70;99.90
5743;DHT22;2896;53.500;10.020;2023-06-10T09:42:32;25.10;99.90
5743;DHT22;2896;53.500;10.020;2023-06-10T09:44:59;25.00;99.90
5743;DHT22;2896;53.500;10.020;2023-06-10T09:47:25;25.50;99.90
5743;DHT22;2896;53.500;10.020;2023-06-10T09:49:52;26.20;99.90
5743;DHT22;2896;53.500;10.020;2023-06-10T09:52:21;26.50;99.90
5743;DHT22;2896;53.500;10.020;2023-06-10T09:54:49;26.10;99.90
5743;DHT22;2896;53.500;10.020;2023-06-10T09:57:18;26.10;99.90
5743;DHT22;2896;53.500;10.020;2023-06-10T09:59:45;26.50;99.90
5743;DHT22;2896;53.500;10.020;2023-06-10T10:02:14;26.90;99.90
5743;DHT22;2896;53.500;10.020;2023-06-10T10:04:41;25.70;99.90
5743;DHT22;2896;53.500;10.020;2023-06-10T10:07:08;25.60;99.90
5743;DHT22;2896;53.500;10.020;2023-06-10T10:09:36;26.40;99.90
5743;DHT22;2896;53.500;10.020;2023-06-10T10:12:03;26.20;99.90
5743;DHT22;2896;53.500;10.020;2023-06-10T10:14:34;26.40;99.90
5743;DHT22;2896;53.500;10.020;2023-06-10T10:17:02;26.00;99.90
5743;DHT22;2896;53.500;10.020;2023-06-10T10:19:32;26.70;99.90
5743;DHT22;2896;53.500;10.020;2023-06-10T10:22:06;26.90;99.90
5743;DHT22;2896;53.500;10.020;2023-06-10T10:24:38;26.20;99.90
5743;DHT22;2896;53.500;10.020;2023-06-10T10:27:10;25.90;99.90
5743;DHT22;2896;53.500;10.020;2023-06-10T10:29:39;26.30;99.90
5743;DHT22;2896;53.500;10.020;2023-06-10T10:32:07;26.40;99.90
5743;DHT22;2896;53.500;10.020;2023-06-10T10:34:41;26.50;99.90
5743;DHT22;2896;53.500;10.020;2023-06-10T10:37:09;27.10;99.90
5743;DHT22;2896;53.500;10.020;2023-06-10T10:39:36;27.80;99.90
5743;DHT22;2896;53.500;10.020;2023-06-10T10:42:04;28.40;99.90
5743;DHT22;2896;53.500;10.020;2023-06-10T10:44:34;28.00;99.90
5743;DHT22;2896;53.500;10.020;2023-06-10T10:47:04;27.80;99.90
5743;DHT22;2896;53.500;10.020;2023-06-10T10:49:35;28.50;99.90
5743;DHT22;2896;53.500;10.020;2023-06-10T10:52:03;29.00;99.90
5743;DHT22;2896;53.500;10.020;2023-06-10T10:54:32;28.10;99.90
5743;DHT22;2896;53.500;10.020;2023-06-10T10:57:13;28.90;99.90
5743;DHT22;2896;53.500;10.020;2023-06-10T10:59:52;28.20;99.90
5743;DHT22;2896;53.500;10.020;2023-06-10T11:02:35;28.90;99.90
5743;DHT22;2896;53.500;10.020;2023-06-10T11:05:04;29.20;99.90
5743;DHT22;2896;53.500;10.020;2023-06-10T11:07:32;28.60;99.90
5743;DHT22;2896;53.500;10.020;2023-06-10T11:09:59;28.50;99.90
5743;DHT22;2896;53.500;10.020;2023-06-10T11:12:40;28.40;99.90
5743;DHT22;2896;53.500;10.020;2023-06-10T11:15:07;28.30;99.90
5743;DHT22;2896;53.500;10.020;2023-06-10T11:17:35;29.10;99.90
5743;DHT22;2896;53.500;10.020;2023-06-10T11:20:02;28.80;99.90
5743;DHT22;2896;53.500;10.020;2023-06-10T11:22:29;28.80;99.90
5743;DHT22;2896;53.500;10.020;2023-06-10T11:24:55;29.20;99.90
5743;DHT22;2896;53.500;10.020;2023-06-10T11:27:24;28.40;99.90
5743;DHT22;2896;53.500;10.020;2023-06-10T11:29:58;28.60;99.90
5743;DHT22;2896;53.500;10.020;2023-06-10T11:32:50;29.00;99.90
5743;DHT22;2896;53.500;10.020;2023-06-10T11:35:18;29.00;99.90
5743;DHT22;2896;53.500;10.020;2023-06-10T11:37:46;29.20;99.90
5743;DHT22;2896;53.500;10.020;2023-06-10T11:40:13;29.60;99.90
5743;DHT22;2896;53.500;10.020;2023-06-10T11:42:40;29.70;99.90
5743;DHT22;2896;53.500;10.020;2023-06-10T11:45:09;29.90;99.90
5743;DHT22;2896;53.500;10.020;2023-06-10T11:47:36;29.70;99.90
5743;DHT22;2896;53.500;10.020;2023-06-10T11:50:04;29.80;99.90
5743;DHT22;2896;53.500;10.020;2023-06-10T11:52:32;30.00;99.90
5743;DHT22;2896;53.500;10.020;2023-06-10T11:55:04;29.90;99.90
5743;DHT22;2896;53.500;10.020;2023-06-10T11:57:33;29.10;99.90
5743;DHT22;2896;53.500;10.020;2023-06-10T12:00:04;29.20;99.90
5743;DHT22;2896;53.500;10.020;2023-06-10T12:02:31;29.30;99.90
5743;DHT22;2896;53.500;10.020;2023-06-10T12:05:11;29.00;99.90
5743;DHT22;2896;53.500;10.020;2023-06-10T12:07:38;28.90;99.90
5743;DHT22;2896;53.500;10.020;2023-06-10T12:10:05;28.80;99.90
5743;DHT22;2896;53.500;10.020;2023-06-10T12:12:34;28.70;99.90
5743;DHT22;2896;53.500;10.020;2023-06-10T12:15:02;28.50;99.90
5743;DHT22;2896;53.500;10.020;2023-06-10T12:17:37;29.00;99.90
5743;DHT22;2896;53.500;10.020;2023-06-10T12:20:06;28.30;99.90
5743;DHT22;2896;53.500;10.020;2023-06-10T12:22:38;29.90;99.90
5743;DHT22;2896;53.500;10.020;2023-06-10T12:25:06;29.30;99.90
5743;DHT22;2896;53.500;10.020;2023-06-10T12:27:34;29.80;99.90
5743;DHT22;2896;53.500;10.020;2023-06-10T12:30:02;29.90;99.90
5743;DHT22;2896;53.500;10.020;2023-06-10T12:32:38;30.00;99.90
5743;DHT22;2896;53.500;10.020;2023-06-10T12:35:06;30.00;99.90
5743;DHT22;2896;53.500;10.020;2023-06-10T12:37:33;30.10;99.90
5743;DHT22;2896;53.500;10.020;2023-06-10T12:40:02;30.40;99.90
5743;DHT22;2896;53.500;10.020;2023-06-10T12:42:29;30.10;99.90
5743;DHT22;2896;53.500;10.020;2023-06-10T12:44:57;30.90;99.90
5743;DHT22;2896;53.500;10.020;2023-06-10T12:47:29;30.40;99.90
5743;DHT22;2896;53.500;10.020;2023-06-10T12:49:58;31.10;99.90
5743;DHT22;2896;53.500;10.020;2023-06-10T12:52:25;30.90;99.90
5743;DHT22;2896;53.500;10.020;2023-06-10T12:54:52;30.60;99.90
5743;DHT22;2896;53.500;10.020;2023-06-10T12:57:20;30.90;99.90
5743;DHT22;2896;53.500;10.020;2023-06-10T12:59:47;31.60;99.90
5743;DHT22;2896;53.500;10.020;2023-06-10T13:02:18;31.20;99.90
5743;DHT22;2896;53.500;10.020;2023-06-10T13:04:46;31.00;99.90
5743;DHT22;2896;53.500;10.020;2023-06-10T13:07:12;31.60;99.90
5743;DHT22;2896;53.500;10.020;2023-06-10T13:09:39;31.70;99.90
5743;DHT22;2896;53.500;10.020;2023-06-10T13:12:07;31.60;99.90
5743;DHT22;2896;53.500;10.020;2023-06-10T13:14:37;32.00;99.90
5743;DHT22;2896;53.500;10.020;2023-06-10T13:17:04;32.60;99.90
5743;DHT22;2896;53.500;10.020;2023-06-10T13:19:32;33.20;99.90
5743;DHT22;2896;53.500;10.020;2023-06-10T13:21:58;32.60;99.90
5743;DHT22;2896;53.500;10.020;2023-06-10T13:24:25;31.60;99.90
5743;DHT22;2896;53.500;10.020;2023-06-10T13:26:52;31.70;99.90
5743;DHT22;2896;53.500;10.020;2023-06-10T13:29:20;32.60;99.90
5743;DHT22;2896;53.500;10.020;2023-06-10T13:31:48;33.20;99.90
5743;DHT22;2896;53.500;10.020;2023-06-10T13:34:15;33.10;99.90
5743;DHT22;2896;53.500;10.020;2023-06-10T13:36:41;33.20;99.90
5743;DHT22;2896;53.500;10.020;2023-06-10T13:39:08;31.80;99.90
5743;DHT22;2896;53.500;10.020;2023-06-10T13:41:35;32.10;99.90
5743;DHT22;2896;53.500;10.020;2023-06-10T13:44:01;31.50;99.90
5743;DHT22;2896;53.500;10.020;2023-06-10T13:46:28;31.80;99.90
5743;DHT22;2896;53.500;10.020;2023-06-10T13:48:56;32.10;99.90
5743;DHT22;2896;53.500;10.020;2023-06-10T13:51:22;32.60;99.90
5743;DHT22;2896;53.500;10.020;2023-06-10T13:53:49;32.90;99.90
5743;DHT22;2896;53.500;10.020;2023-06-10T13:56:17;33.50;99.90
5743;DHT22;2896;53.500;10.020;2023-06-10T13:58:43;33.90;99.90
5743;DHT22;2896;53.500;10.020;2023-06-10T14:01:10;33.80;99.90
5743;DHT22;2896;53.500;10.020;2023-06-10T14:03:37;32.90;99.90
5743;DHT22;2896;53.500;10.020;2023-06-10T14:06:05;32.40;99.90
5743;DHT22;2896;53.500;10.020;2023-06-10T14:08:31;31.80;99.90
5743;DHT22;2896;53.500;10.020;2023-06-10T14:10:58;31.40;99.90
5743;DHT22;2896;53.500;10.020;2023-06-10T14:13:25;31.80;99.90
5743;DHT22;2896;53.500;10.020;2023-06-10T14:15:51;31.60;99.90
5743;DHT22;2896;53.500;10.020;2023-06-10T14:18:18;31.20;99.90
5743;DHT22;2896;53.500;10.020;2023-06-10T14:20:45;31.00;99.90
5743;DHT22;2896;53.500;10.020;2023-06-10T14:23:13;31.00;99.90
5743;DHT22;2896;53.500;10.020;2023-06-10T14:25:39;30.50;99.90
5743;DHT22;2896;53.500;10.020;2023-06-10T14:28:06;30.30;99.90
5743;DHT22;2896;53.500;10.020;2023-06-10T14:30:32;30.50;99.90
5743;DHT22;2896;53.500;10.020;2023-06-10T14:32:59;30.70;99.90
5743;DHT22;2896;53.500;10.020;2023-06-10T14:35:26;30.60;99.90
5743;DHT22;2896;53.500;10.020;2023-06-10T14:37:52;30.70;99.90
5743;DHT22;2896;53.500;10.020;2023-06-10T14:40:20;31.00;99.90
5743;DHT22;2896;53.500;10.020;2023-06-10T14:42:49;31.00;99.90
5743;DHT22;2896;53.500;10.020;2023-06-10T14:45:16;30.80;99.90
5743;DHT22;2896;53.500;10.020;2023-06-10T14:47:43;30.50;99.90
5743;DHT22;2896;53.500;10.020;2023-06-10T14:50:09;31.20;99.90
5743;DHT22;2896;53.500;10.020;2023-06-10T14:52:36;31.70;99.90
5743;DHT22;2896;53.500;10.020;2023-06-10T14:55:03;31.40;99.90
5743;DHT22;2896;53.500;10.020;2023-06-10T14:57:31;30.60;99.90
5743;DHT22;2896;53.500;10.020;2023-06-10T14:59:58;30.70;99.90
5743;DHT22;2896;53.500;10.020;2023-06-10T15:02:25;31.40;99.90
5743;DHT22;2896;53.500;10.020;2023-06-10T15:04:52;31.40;99.90
5743;DHT22;2896;53.500;10.020;2023-06-10T15:07:18;31.10;99.90
5743;DHT22;2896;53.500;10.020;2023-06-10T15:09:45;31.10;99.90
5743;DHT22;2896;53.500;10.020;2023-06-10T15:12:12;30.50;99.90
5743;DHT22;2896;53.500;10.020;2023-06-10T15:14:40;30.80;99.90
5743;DHT22;2896;53.500;10.020;2023-06-10T15:17:07;30.90;99.90
5743;DHT22;2896;53.500;10.020;2023-06-10T15:19:33;30.90;99.90
5743;DHT22;2896;53.500;10.020;2023-06-10T15:22:00;31.10;99.90
5743;DHT22;2896;53.500;10.020;2023-06-10T15:24:27;30.70;99.90
5743;DHT22;2896;53.500;10.020;2023-06-10T15:26:53;30.80;99.90
5743;DHT22;2896;53.500;10.020;2023-06-10T15:29:20;30.90;99.90
5743;DHT22;2896;53.500;10.020;2023-06-10T15:31:48;30.40;99.90
5743;DHT22;2896;53.500;10.020;2023-06-10T15:34:15;30.50;99.90
5743;DHT22;2896;53.500;10.020;2023-06-10T15:36:41;29.70;99.90
5743;DHT22;2896;53.500;10.020;2023-06-10T15:39:08;29.90;99.90
5743;DHT22;2896;53.500;10.020;2023-06-10T15:41:35;29.80;99.90
5743;DHT22;2896;53.500;10.020;2023-06-10T15:44:01;29.70;99.90
5743;DHT22;2896;53.500;10.020;2023-06-10T15:46:28;29.40;99.90
5743;DHT22;2896;53.500;10.020;2023-06-10T15:48:57;29.30;99.90
5743;DHT22;2896;53.500;10.020;2023-06-10T15:51:23;28.90;99.90
5743;DHT22;2896;53.500;10.020;2023-06-10T15:53:50;29.00;99.90
5743;DHT22;2896;53.500;10.020;2023-06-10T15:56:17;29.20;99.90